Terminal Aerodrome Forecast
Issued by NWS

Home | Current Version | Previous Version | Text Only | Print | Product List | Glossary Off
Versions: 1 2 3 4 5 6 7 8 9 10 11 12 13 14 15 16 17 18 19 20 21 22 23 24

000
FTUS43 KTOP 222300
TAFMHK
TAF
KMHK 222320Z 2300/2324 20009KT P6SM SCT050 BKN200
     FM230130 20008KT 6SM -SHRA BR OVC024
     FM230800 21005KT 6SM BR OVC017
     FM231600 21006KT P6SM BKN025
     FM232000 20007KT P6SM SCT030=

USA.gov is the U.S. government's official web portal to all federal, state and local government web resources and services.